createdAt,value
2017-08-18T00:01:38.824Z,9.30
2017-08-18T00:04:06.371Z,9.00
2017-08-18T00:06:33.896Z,9.83
2017-08-18T00:09:01.426Z,10.03
2017-08-18T00:11:29.739Z,9.23
2017-08-18T00:13:57.266Z,11.27
2017-08-18T00:16:25.583Z,10.37
2017-08-18T00:18:53.137Z,10.50
2017-08-18T00:21:20.671Z,10.70
2017-08-18T00:23:48.209Z,11.10
2017-08-18T00:26:28.965Z,10.50
2017-08-18T00:28:56.511Z,10.40
2017-08-18T00:31:24.020Z,10.60
2017-08-18T00:33:52.309Z,10.30
2017-08-18T00:36:19.826Z,11.60
2017-08-18T00:38:47.354Z,11.07
2017-08-18T00:41:14.865Z,10.87
2017-08-18T00:43:43.145Z,10.20
2017-08-18T00:46:12.445Z,10.80
2017-08-18T00:48:40.712Z,11.10
2017-08-18T00:51:08.257Z,11.57
2017-08-18T00:53:35.774Z,10.10
2017-08-18T00:56:03.309Z,10.07
2017-08-18T00:58:31.597Z,8.63
2017-08-18T01:00:59.125Z,10.63
2017-08-18T01:03:26.630Z,9.77
2017-08-18T01:05:58.705Z,9.10
2017-08-18T01:08:26.272Z,10.27
2017-08-18T01:10:53.804Z,10.30
2017-08-18T01:13:21.325Z,9.10
2017-08-18T01:15:48.856Z,10.43
2017-08-18T01:18:16.375Z,9.80
2017-08-18T01:20:43.912Z,10.00
2017-08-18T01:23:11.413Z,9.30
2017-08-18T01:25:44.601Z,10.70
2017-08-18T01:28:12.108Z,9.27
2017-08-18T01:30:39.646Z,9.57
2017-08-18T01:33:07.159Z,8.53
2017-08-18T01:35:34.685Z,8.70
2017-08-18T01:38:02.194Z,9.67
2017-08-18T01:40:29.722Z,9.20
2017-08-18T01:42:57.241Z,8.90
2017-08-18T01:45:24.749Z,8.33
2017-08-18T01:47:53.045Z,8.30
2017-08-18T01:50:20.540Z,8.03
2017-08-18T01:52:48.060Z,7.33
2017-08-18T01:55:15.585Z,7.87
2017-08-18T01:57:43.121Z,7.77
2017-08-18T02:00:10.622Z,8.00
2017-08-18T02:02:38.909Z,7.37
2017-08-18T02:05:07.181Z,8.50
2017-08-18T02:07:35.464Z,7.37
2017-08-18T02:10:02.960Z,6.87
2017-08-18T02:12:30.484Z,7.17
2017-08-18T02:14:57.990Z,7.10
2017-08-18T02:17:25.545Z,6.73
2017-08-18T02:19:53.036Z,7.30
2017-08-18T02:22:20.573Z,6.93
2017-08-18T02:24:48.083Z,7.20
2017-08-18T02:27:15.612Z,6.40
2017-08-18T02:29:43.126Z,7.13
2017-08-18T02:32:10.661Z,7.17
2017-08-18T02:34:38.177Z,6.67
2017-08-18T02:37:05.688Z,6.53
2017-08-18T02:39:33.208Z,6.27
2017-08-18T02:42:00.712Z,6.60
2017-08-18T02:44:28.252Z,7.23
2017-08-18T02:46:56.534Z,6.60
2017-08-18T02:49:24.113Z,6.53
2017-08-18T02:51:51.622Z,5.97
2017-08-18T02:54:19.140Z,6.50
2017-08-18T02:56:46.644Z,6.83
2017-08-18T02:59:14.184Z,6.60
2017-08-18T03:01:41.688Z,6.30
2017-08-18T03:04:09.226Z,5.57
2017-08-18T03:06:36.752Z,6.47
2017-08-18T03:09:04.329Z,5.77
2017-08-18T03:11:31.874Z,5.30
2017-08-18T03:13:59.407Z,4.90
2017-08-18T03:16:26.926Z,5.23
2017-08-18T03:18:54.449Z,4.53
2017-08-18T03:21:21.952Z,5.70
2017-08-18T03:23:49.497Z,5.27
2017-08-18T03:26:18.004Z,5.77
2017-08-18T03:28:46.279Z,5.30
2017-08-18T03:31:13.825Z,5.67
2017-08-18T03:33:41.329Z,5.90
2017-08-18T03:36:08.853Z,5.03
2017-08-18T03:38:36.357Z,4.97
2017-08-18T03:41:03.883Z,4.80
2017-08-18T03:43:32.165Z,5.50
2017-08-18T03:46:00.465Z,5.23
2017-08-18T03:48:27.969Z,5.30
2017-08-18T03:50:55.492Z,4.70
2017-08-18T03:53:23.104Z,6.07
2017-08-18T03:55:50.628Z,5.60
2017-08-18T03:58:18.121Z,4.63
2017-08-18T04:00:45.648Z,4.77
2017-08-18T04:03:13.151Z,4.60
2017-08-18T04:05:40.675Z,5.20
2017-08-18T04:08:08.178Z,5.80
2017-08-18T04:10:36.456Z,5.10
2017-08-18T04:13:04.716Z,5.47
2017-08-18T04:15:38.502Z,6.00
2017-08-18T04:18:05.997Z,4.30
2017-08-18T04:20:34.286Z,4.60
2017-08-18T04:23:02.624Z,5.40
2017-08-18T04:25:30.124Z,5.80
2017-08-18T04:27:57.627Z,5.90
2017-08-18T04:30:25.128Z,5.70
2017-08-18T04:32:53.424Z,6.10
2017-08-18T04:35:20.916Z,5.37
2017-08-18T04:37:48.428Z,5.07
2017-08-18T04:40:16.706Z,6.20
2017-08-18T04:42:44.993Z,4.90
2017-08-18T04:45:13.252Z,5.87
2017-08-18T04:47:40.780Z,5.60
2017-08-18T04:50:08.276Z,4.83
2017-08-18T04:52:36.562Z,4.60
2017-08-18T04:55:04.828Z,5.43
2017-08-18T04:57:33.112Z,5.63
2017-08-18T05:00:01.367Z,5.00
2017-08-18T05:02:28.882Z,4.77
2017-08-18T05:04:56.394Z,4.53
2017-08-18T05:07:23.907Z,4.83
2017-08-18T05:09:51.402Z,4.30
2017-08-18T05:12:18.900Z,4.37
2017-08-18T05:14:46.392Z,4.67
2017-08-18T05:17:13.893Z,4.20
2017-08-18T05:19:41.412Z,4.30
2017-08-18T05:22:08.911Z,4.03
2017-08-18T05:24:36.428Z,3.97
2017-08-18T05:27:03.924Z,4.20
2017-08-18T05:29:32.326Z,4.30
2017-08-18T05:32:00.603Z,4.90
2017-08-18T05:34:28.138Z,4.50
2017-08-18T05:36:55.665Z,4.10
2017-08-18T05:39:23.192Z,4.13
2017-08-18T05:41:51.044Z,4.70
2017-08-18T05:44:19.344Z,5.30
2017-08-18T05:46:46.863Z,4.50
2017-08-18T05:49:14.388Z,4.70
2017-08-18T05:51:41.880Z,5.03
2017-08-18T05:54:09.414Z,4.10
2017-08-18T05:56:36.950Z,4.60
2017-08-18T05:59:04.470Z,3.73
2017-08-18T06:01:31.952Z,4.03
2017-08-18T06:04:00.233Z,4.40
2017-08-18T06:06:27.737Z,4.37
2017-08-18T06:08:55.236Z,4.20
2017-08-18T06:11:22.755Z,4.27
2017-08-18T06:13:50.294Z,3.80
2017-08-18T06:16:17.812Z,4.27
2017-08-18T06:18:46.072Z,4.37
2017-08-18T06:21:13.608Z,3.90
2017-08-18T06:23:41.104Z,4.43
2017-08-18T06:26:08.628Z,4.10
2017-08-18T06:28:36.128Z,3.60
2017-08-18T06:31:04.672Z,4.57
2017-08-18T06:33:32.206Z,3.60
2017-08-18T06:35:59.724Z,3.80
2017-08-18T06:38:27.781Z,3.87
2017-08-18T06:40:55.345Z,4.30
2017-08-18T06:43:22.900Z,4.37
2017-08-18T06:45:50.420Z,3.97
2017-08-18T06:48:17.930Z,3.90
2017-08-18T06:50:45.446Z,4.10
2017-08-18T06:53:12.941Z,4.00
2017-08-18T06:55:42.481Z,4.07
2017-08-18T06:58:10.746Z,3.30
2017-08-18T07:00:39.062Z,3.67
2017-08-18T07:03:06.555Z,3.87
2017-08-18T07:05:34.056Z,4.20
2017-08-18T07:08:01.595Z,3.93
2017-08-18T07:10:29.098Z,4.63
2017-08-18T07:12:56.621Z,4.00
2017-08-18T07:15:24.903Z,3.53
2017-08-18T07:17:52.427Z,3.83
2017-08-18T07:20:19.934Z,4.70
2017-08-18T07:22:47.458Z,4.60
2017-08-18T07:25:14.962Z,5.00
2017-08-18T07:27:43.473Z,4.43
2017-08-18T07:30:10.974Z,3.73
2017-08-18T07:32:38.486Z,4.10
2017-08-18T07:35:05.991Z,4.03
2017-08-18T07:37:33.518Z,4.40
2017-08-18T07:40:01.012Z,4.03
2017-08-18T07:42:28.533Z,4.20
2017-08-18T07:44:56.049Z,4.20
2017-08-18T07:47:24.341Z,3.30
2017-08-18T07:49:51.828Z,3.83
2017-08-18T07:52:19.344Z,3.80
2017-08-18T07:54:46.849Z,4.00
2017-08-18T07:57:14.342Z,4.83
2017-08-18T07:59:42.631Z,4.60
2017-08-18T08:02:10.906Z,3.97
2017-08-18T08:04:39.202Z,3.40
2017-08-18T08:07:06.723Z,3.50
2017-08-18T08:09:34.344Z,7.43
2017-08-18T08:12:01.845Z,5.03
2017-08-18T08:14:29.368Z,10.10
2017-08-18T08:16:56.953Z,3.80
2017-08-18T08:19:24.533Z,3.90
2017-08-18T08:21:52.033Z,3.30
2017-08-18T08:24:19.554Z,3.77
2017-08-18T08:26:47.826Z,3.93
2017-08-18T08:29:15.361Z,3.13
2017-08-18T08:31:43.005Z,3.80
2017-08-18T08:34:10.521Z,4.07
2017-08-18T08:36:38.792Z,3.80
2017-08-18T08:39:07.104Z,3.73
2017-08-18T08:41:34.606Z,2.80
2017-08-18T08:44:02.137Z,3.13
2017-08-18T08:46:29.641Z,2.70
2017-08-18T08:52:00.314Z,3.30
2017-08-18T08:54:30.956Z,3.03
2017-08-18T08:56:58.444Z,3.30
2017-08-18T08:59:26.010Z,3.00
2017-08-18T09:01:53.521Z,3.43
2017-08-18T09:04:21.040Z,4.17
2017-08-18T09:06:49.324Z,3.30
2017-08-18T09:09:16.821Z,3.70
2017-08-18T09:11:44.336Z,3.00
2017-08-18T09:14:11.833Z,3.50
2017-08-18T09:16:39.345Z,3.10
2017-08-18T09:19:06.839Z,3.43
2017-08-18T09:21:34.342Z,3.47
2017-08-18T09:24:01.836Z,3.20
2017-08-18T09:26:30.113Z,3.33
2017-08-18T09:28:58.369Z,3.20
2017-08-18T09:31:26.663Z,2.73
2017-08-18T09:33:54.923Z,3.53
2017-08-18T09:36:22.470Z,2.93
2017-08-18T09:38:49.968Z,3.30
2017-08-18T09:41:17.492Z,3.10
2017-08-18T09:43:45.769Z,3.27
2017-08-18T09:46:13.284Z,3.17
2017-08-18T09:48:52.717Z,4.10
2017-08-18T09:51:32.201Z,3.47
2017-08-18T09:54:11.297Z,2.97
2017-08-18T09:56:50.636Z,3.20
2017-08-18T09:59:18.144Z,3.50
2017-08-18T10:01:46.419Z,3.80
2017-08-18T10:04:13.921Z,3.60
2017-08-18T10:06:41.415Z,3.30
2017-08-18T10:09:08.948Z,3.40
2017-08-18T10:11:36.441Z,3.40
2017-08-18T10:14:04.728Z,4.43
2017-08-18T10:16:32.979Z,3.93
2017-08-18T10:19:01.276Z,4.20
2017-08-18T10:21:29.549Z,3.93
2017-08-18T10:23:57.076Z,4.20
2017-08-18T10:26:24.589Z,3.70
2017-08-18T10:28:52.116Z,4.07
2017-08-18T10:31:20.389Z,3.90
2017-08-18T10:33:47.904Z,3.73
2017-08-18T10:36:15.408Z,4.07
2017-08-18T10:38:43.705Z,4.13
2017-08-18T10:41:11.196Z,3.90
2017-08-18T10:43:38.732Z,4.10
2017-08-18T10:46:06.495Z,3.37
2017-08-18T10:48:34.137Z,3.70
2017-08-18T10:51:01.737Z,3.77
2017-08-18T10:53:29.306Z,4.33
2017-08-18T10:55:56.901Z,3.47
2017-08-18T10:58:25.258Z,4.00
2017-08-18T11:00:52.866Z,3.50
2017-08-18T11:03:20.476Z,3.53
2017-08-18T11:05:48.045Z,3.43
2017-08-18T11:08:15.631Z,3.63
2017-08-18T11:10:43.213Z,3.33
2017-08-18T11:13:10.905Z,3.30
2017-08-18T11:15:38.488Z,3.23
2017-08-18T11:18:06.012Z,3.57
2017-08-18T11:20:33.669Z,3.63
2017-08-18T11:23:01.192Z,3.57
2017-08-18T11:25:29.477Z,3.80
2017-08-18T11:27:57.018Z,3.90
2017-08-18T11:30:25.300Z,3.43
2017-08-18T11:32:53.566Z,3.67
2017-08-18T11:35:21.848Z,3.40
2017-08-18T11:37:50.843Z,3.73
2017-08-18T11:40:19.130Z,3.40
2017-08-18T11:42:47.112Z,3.80
2017-08-18T11:45:15.044Z,3.33
2017-08-18T11:47:43.434Z,3.97
2017-08-18T11:50:11.147Z,3.80
2017-08-18T11:52:38.755Z,3.00
2017-08-18T11:55:06.447Z,3.30
2017-08-18T11:57:34.999Z,3.43
2017-08-18T12:00:02.606Z,3.80
2017-08-18T12:02:30.239Z,3.43
2017-08-18T12:04:57.856Z,3.43
2017-08-18T12:07:25.531Z,4.07
2017-08-18T12:09:53.884Z,3.47
2017-08-18T12:12:21.497Z,4.10
2017-08-18T12:14:49.050Z,4.40
2017-08-18T12:17:16.715Z,3.87
2017-08-18T12:19:44.312Z,4.10
2017-08-18T12:22:11.972Z,3.70
2017-08-18T12:24:39.579Z,3.80
2017-08-18T12:27:07.985Z,4.00
2017-08-18T12:29:35.505Z,3.70
2017-08-18T12:32:03.025Z,4.50
2017-08-18T12:34:30.538Z,3.53
2017-08-18T12:36:58.820Z,3.83
2017-08-18T12:39:27.080Z,3.70
2017-08-18T12:41:54.600Z,4.03
2017-08-18T12:44:22.105Z,4.33
2017-08-18T12:46:50.386Z,4.13
2017-08-18T12:49:18.670Z,3.87
2017-08-18T12:51:46.197Z,3.80
2017-08-18T12:54:13.713Z,3.53
2017-08-18T12:56:41.221Z,3.80
2017-08-18T12:59:08.745Z,4.73
2017-08-18T13:01:36.244Z,4.60
2017-08-18T13:04:04.528Z,5.13
2017-08-18T13:06:32.783Z,4.00
2017-08-18T13:09:00.308Z,4.20
2017-08-18T13:11:27.815Z,4.03
2017-08-18T13:13:56.145Z,3.90
2017-08-18T13:16:23.657Z,3.63
2017-08-18T13:18:51.941Z,4.60
2017-08-18T13:21:19.441Z,4.73
2017-08-18T13:23:46.965Z,3.87
2017-08-18T13:26:14.495Z,4.00
2017-08-18T13:28:42.021Z,3.40
2017-08-18T13:31:09.541Z,4.00
2017-08-18T13:33:37.062Z,3.93
2017-08-18T13:36:04.577Z,3.53
2017-08-18T13:38:32.114Z,3.33
2017-08-18T13:40:59.636Z,3.40
2017-08-18T13:43:27.161Z,3.73
2017-08-18T13:45:54.657Z,3.30
2017-08-18T13:48:22.180Z,4.30
2017-08-18T13:50:49.683Z,4.10
2017-08-18T13:53:17.985Z,3.63
2017-08-18T13:55:46.410Z,4.40
2017-08-18T13:58:13.924Z,3.80
2017-08-18T14:00:41.421Z,3.90
2017-08-18T14:03:08.939Z,4.70
2017-08-18T14:05:36.448Z,4.10
2017-08-18T14:08:05.003Z,3.90
2017-08-18T14:10:32.592Z,3.67
2017-08-18T14:13:00.150Z,4.17
2017-08-18T14:15:27.662Z,4.50
2017-08-18T14:17:55.231Z,4.50
2017-08-18T14:20:22.758Z,4.10
2017-08-18T14:22:50.281Z,4.37
2017-08-18T14:25:23.478Z,3.63
2017-08-18T14:27:51.013Z,4.33
2017-08-18T14:30:18.510Z,4.00
2017-08-18T14:32:46.042Z,4.40
2017-08-18T14:35:14.490Z,3.83
2017-08-18T14:37:42.012Z,4.10
2017-08-18T14:40:10.288Z,3.90
2017-08-18T14:42:38.572Z,4.30
2017-08-18T14:45:06.094Z,4.10
2017-08-18T14:47:33.614Z,4.03
2017-08-18T14:50:01.140Z,4.10
2017-08-18T14:52:28.672Z,4.10
2017-08-18T14:54:56.354Z,3.80
2017-08-18T14:57:24.264Z,3.70
2017-08-18T14:59:51.809Z,3.40
2017-08-18T15:02:19.404Z,3.80
2017-08-18T15:04:46.959Z,3.40
2017-08-18T15:07:14.480Z,3.83
2017-08-18T15:09:42.030Z,3.80
2017-08-18T15:12:09.553Z,4.20
2017-08-18T15:14:37.856Z,4.03
2017-08-18T15:17:05.375Z,4.27
2017-08-18T15:19:32.913Z,3.97
2017-08-18T15:22:00.430Z,4.10
2017-08-18T15:24:27.982Z,4.37
2017-08-18T15:26:55.492Z,4.37
2017-08-18T15:29:23.013Z,4.40
2017-08-18T15:31:50.518Z,3.80
2017-08-18T15:34:18.035Z,4.07
2017-08-18T15:36:45.574Z,4.23
2017-08-18T15:39:13.571Z,4.40
2017-08-18T15:41:41.182Z,4.43
2017-08-18T15:44:08.766Z,4.30
2017-08-18T15:46:36.282Z,4.97
2017-08-18T15:49:05.790Z,5.80
2017-08-18T15:51:33.701Z,5.83
2017-08-18T15:54:12.523Z,4.93
2017-08-18T15:56:41.788Z,5.33
2017-08-18T15:59:10.003Z,5.63
2017-08-18T16:01:37.568Z,5.80
2017-08-18T16:04:05.875Z,4.90
2017-08-18T16:06:33.431Z,4.00
2017-08-18T16:09:01.010Z,3.50
2017-08-18T16:11:28.578Z,2.90
2017-08-18T16:13:56.185Z,2.63
2017-08-18T16:16:23.751Z,2.43
2017-08-18T16:18:51.266Z,2.73
2017-08-18T16:21:18.822Z,1.73
2017-08-18T16:23:46.357Z,1.93
2017-08-18T16:26:13.918Z,1.50
2017-08-18T16:28:41.470Z,12.50
2017-08-18T16:31:09.251Z,1.80
2017-08-18T16:33:36.808Z,9.90
2017-08-18T16:36:04.374Z,6.43
2017-08-18T16:38:31.901Z,1.70
2017-08-18T16:40:59.459Z,2.30
2017-08-18T16:43:27.000Z,1.43
2017-08-18T16:45:55.324Z,1.30
2017-08-18T16:48:22.863Z,1.20
2017-08-18T16:50:51.177Z,1.20
2017-08-18T16:53:18.715Z,1.10
2017-08-18T16:55:52.395Z,1.07
2017-08-18T16:58:20.700Z,1.00
2017-08-18T17:00:48.240Z,1.03
2017-08-18T17:03:16.560Z,1.13
2017-08-18T17:05:44.136Z,0.83
2017-08-18T17:08:11.681Z,1.40
2017-08-18T17:10:39.206Z,0.70
2017-08-18T17:13:06.744Z,0.90
2017-08-18T17:15:34.289Z,0.70
2017-08-18T17:18:01.814Z,0.80
2017-08-18T17:20:29.361Z,0.90
2017-08-18T17:22:56.891Z,0.80
2017-08-18T17:25:25.255Z,0.90
2017-08-18T17:27:52.813Z,0.80
2017-08-18T17:30:20.386Z,1.00
2017-08-18T17:32:48.652Z,1.93
2017-08-18T17:35:16.178Z,1.70
2017-08-18T17:37:45.023Z,1.00
2017-08-18T17:40:12.549Z,1.40
2017-08-18T17:42:40.048Z,1.40
2017-08-18T17:45:07.560Z,1.30
2017-08-18T17:47:35.057Z,1.23
2017-08-18T17:50:02.577Z,1.40
2017-08-18T17:52:30.198Z,1.60
2017-08-18T17:54:57.722Z,2.80
2017-08-18T17:57:25.220Z,1.50
2017-08-18T17:59:52.740Z,2.40
2017-08-18T18:02:20.241Z,1.40
2017-08-18T18:04:47.762Z,1.30
2017-08-18T18:07:15.261Z,1.40
2017-08-18T18:09:42.793Z,1.70
2017-08-18T18:12:11.125Z,1.60
2017-08-18T18:14:38.641Z,1.00
2017-08-18T18:17:06.933Z,1.30
2017-08-18T18:19:34.466Z,1.30
2017-08-18T18:22:02.765Z,1.60
2017-08-18T18:24:30.269Z,1.20
2017-08-18T18:26:57.787Z,1.27
2017-08-18T18:29:25.280Z,1.13
2017-08-18T18:31:52.809Z,1.30
2017-08-18T18:34:20.314Z,1.90
2017-08-18T18:36:47.847Z,1.43
2017-08-18T18:39:15.350Z,1.50
2017-08-18T18:41:42.880Z,1.37
2017-08-18T18:44:10.389Z,1.53
2017-08-18T18:46:38.676Z,2.23
2017-08-18T18:49:06.181Z,1.60
2017-08-18T18:51:33.703Z,1.70
2017-08-18T18:54:01.207Z,1.10
2017-08-18T18:56:28.741Z,1.70
2017-08-18T18:58:56.249Z,1.30
2017-08-18T19:01:24.560Z,1.53
2017-08-18T19:03:52.085Z,1.33
2017-08-18T19:06:21.305Z,1.00
2017-08-18T19:08:49.588Z,1.27
2017-08-18T19:11:17.113Z,1.20
2017-08-18T19:13:44.630Z,1.57
2017-08-18T19:16:12.212Z,1.30
2017-08-18T19:18:39.738Z,1.17
2017-08-18T19:21:07.276Z,1.27
2017-08-18T19:23:35.562Z,1.40
2017-08-18T19:26:03.117Z,1.20
2017-08-18T19:28:30.664Z,1.50
2017-08-18T19:30:59.008Z,1.00
2017-08-18T19:33:26.520Z,1.43
2017-08-18T19:35:55.206Z,1.00
2017-08-18T19:38:22.729Z,1.20
2017-08-18T19:40:50.270Z,1.53
2017-08-18T19:43:17.779Z,1.10
2017-08-18T19:45:48.069Z,1.10
2017-08-18T19:48:15.589Z,1.20
2017-08-18T19:50:43.140Z,1.10
2017-08-18T19:53:10.677Z,1.00
2017-08-18T19:55:38.228Z,1.10
2017-08-18T19:58:05.753Z,1.20
2017-08-18T20:00:33.406Z,1.30
2017-08-18T20:03:00.943Z,1.00
2017-08-18T20:05:28.517Z,0.90
2017-08-18T20:07:56.870Z,0.93
2017-08-18T20:10:24.430Z,1.10
2017-08-18T20:12:51.963Z,1.13
2017-08-18T20:15:20.966Z,0.97
2017-08-18T20:17:48.498Z,1.00
2017-08-18T20:20:17.281Z,1.03
2017-08-18T20:22:44.829Z,0.83
2017-08-18T20:25:12.374Z,1.07
2017-08-18T20:27:39.895Z,1.20
2017-08-18T20:30:07.474Z,0.93
2017-08-18T20:32:35.756Z,0.90
2017-08-18T20:35:03.289Z,1.03
2017-08-18T20:37:30.845Z,0.90
2017-08-18T20:39:58.370Z,1.00
2017-08-18T20:42:27.698Z,0.90
2017-08-18T20:44:56.241Z,1.20
2017-08-18T20:47:23.798Z,0.87
2017-08-18T20:49:51.335Z,1.20
2017-08-18T20:52:19.641Z,0.90
2017-08-18T20:54:47.181Z,1.20
2017-08-18T20:57:14.727Z,1.20
2017-08-18T20:59:45.073Z,0.97
2017-08-18T21:02:14.888Z,0.90
2017-08-18T21:04:42.430Z,1.00
2017-08-18T21:07:10.771Z,0.80
2017-08-18T21:09:38.285Z,0.90
2017-08-18T21:12:05.898Z,1.00
2017-08-18T21:14:34.369Z,0.83
2017-08-18T21:17:04.534Z,0.90
2017-08-18T21:19:33.387Z,1.07
2017-08-18T21:22:01.986Z,0.97
2017-08-18T21:24:30.362Z,0.87
2017-08-18T21:26:57.937Z,0.80
2017-08-18T21:29:25.460Z,1.13
2017-08-18T21:31:53.007Z,1.00
2017-08-18T21:34:20.562Z,1.20
2017-08-18T21:36:48.134Z,1.10
2017-08-18T21:39:15.686Z,1.60
2017-08-18T21:41:47.057Z,1.03
2017-08-18T21:44:14.590Z,1.00
2017-08-18T21:46:42.149Z,1.10
2017-08-18T21:49:09.674Z,0.90
2017-08-18T21:51:38.028Z,1.20
2017-08-18T21:54:05.606Z,1.63
2017-08-18T21:56:33.934Z,1.27
2017-08-18T21:59:01.534Z,1.10
2017-08-18T22:01:33.882Z,0.90
2017-08-18T22:04:01.429Z,0.87
2017-08-18T22:06:29.218Z,1.37
2017-08-18T22:08:56.778Z,1.00
2017-08-18T22:11:24.314Z,1.17
2017-08-18T22:13:51.906Z,1.00
2017-08-18T22:16:19.438Z,0.90
2017-08-18T22:18:46.997Z,1.00
2017-08-18T22:21:14.606Z,0.80
2017-08-18T22:23:42.144Z,0.90
2017-08-18T22:26:09.726Z,0.83
2017-08-18T22:28:37.274Z,0.90
2017-08-18T22:31:04.813Z,0.80
2017-08-18T22:33:32.345Z,0.90
2017-08-18T22:35:59.926Z,0.90
2017-08-18T22:38:27.543Z,0.80
2017-08-18T22:40:55.092Z,0.97
2017-08-18T22:43:23.416Z,1.20
2017-08-18T22:45:50.960Z,1.10
2017-08-18T22:48:18.527Z,1.00
2017-08-18T22:50:46.082Z,0.90
2017-08-18T22:53:13.629Z,1.20
2017-08-18T22:55:41.152Z,1.03
2017-08-18T22:58:08.693Z,0.90
2017-08-18T23:00:36.249Z,1.00
2017-08-18T23:03:03.812Z,0.97
2017-08-18T23:05:31.348Z,0.83
2017-08-18T23:07:58.926Z,1.00
2017-08-18T23:10:26.545Z,0.90
2017-08-18T23:12:54.885Z,1.27
2017-08-18T23:15:22.425Z,1.10
2017-08-18T23:17:50.001Z,0.93
2017-08-18T23:20:17.626Z,1.00
2017-08-18T23:22:45.246Z,1.43
2017-08-18T23:25:12.801Z,1.00
2017-08-18T23:27:40.379Z,1.20
2017-08-18T23:30:07.970Z,1.10
2017-08-18T23:32:35.525Z,1.00
2017-08-18T23:35:03.057Z,1.00
2017-08-18T23:37:30.621Z,1.20
2017-08-18T23:39:58.143Z,1.00
2017-08-18T23:42:25.710Z,1.17
2017-08-18T23:44:53.233Z,0.80
2017-08-18T23:47:21.606Z,1.20
2017-08-18T23:49:49.902Z,0.93
2017-08-18T23:52:17.519Z,1.00
2017-08-18T23:54:45.281Z,1.33
2017-08-18T23:57:12.832Z,1.03
2017-08-18T23:59:40.389Z,1.17
